Time;durP1;ratioP1;P1;durP2;ratioP2;P2;SDS_P1;SDS_P2;PMS_P1;PMS_P2;Temp;Humidity;BMP_temperature;BMP_pressure;BME280_temperature;BME280_humidity;BME280_pressure;Samples;Min_cycle;Max_cycle;Signal;HPM_P1;HPM_P2
2022/05/13 00:01:04;;;;;;;7.22;1.90;;;;;;;-142.75;100.00;77373.50;4972169;28;20037;-70
2022/05/13 00:03:29;;;;;;;8.90;1.33;;;;;;;-142.75;100.00;77371.53;4989799;28;20028;-71
2022/05/13 00:05:54;;;;;;;8.52;1.50;;;;;;;-142.75;100.00;77373.50;4989607;28;20033;-70
2022/05/13 00:08:19;;;;;;;;;;;;;;;-142.75;100.00;77377.44;4972780;28;20038;-71
2022/05/13 00:10:47;;;;;;;12.63;1.65;;;;;;;-142.75;100.00;77379.41;4972301;28;19913;-70
2022/05/13 00:13:13;;;;;;;9.43;2.15;;;;;;;-142.75;100.00;77385.31;4972222;28;20030;-70
2022/05/13 00:15:42;;;;;;;9.57;1.83;;;;;;;-142.75;100.00;77383.34;4988034;28;20484;-70
2022/05/13 00:18:08;;;;;;;6.68;1.55;;;;;;;-142.75;100.00;77387.28;4989351;28;20022;-71
2022/05/13 00:20:33;;;;;;;15.88;1.92;;;;;;;-142.75;100.00;77385.31;4989741;28;20049;-70
2022/05/13 00:22:58;;;;;;;6.60;1.40;;;;;;;-142.75;100.00;77379.41;4990907;28;20117;-70
2022/05/13 00:25:27;;;;;;;13.63;2.05;;;;;;;-142.75;100.00;77383.34;4993160;28;20037;-70
2022/05/13 00:27:58;;;;;;;15.93;2.22;;;;;;;-142.75;100.00;77389.25;4991414;28;20058;-68
2022/05/13 00:30:25;;;;;;;9.90;1.67;;;;;;;-142.75;100.00;77389.25;4993327;28;20582;-71
2022/05/13 00:32:50;;;;;;;12.82;1.77;;;;;;;-142.75;100.00;77389.25;4993163;28;20030;-70
2022/05/13 00:35:17;;;;;;;10.85;2.22;;;;;;;-142.75;100.00;77393.19;5003387;28;20428;-71
2022/05/13 00:37:42;;;;;;;13.02;2.17;;;;;;;-142.75;100.00;77389.25;5012040;28;20041;-68
2022/05/13 00:40:10;;;;;;;18.48;2.45;;;;;;;-142.75;100.00;77385.31;5012595;28;20040;-70
2022/05/13 00:42:35;;;;;;;11.82;2.80;;;;;;;-142.75;100.00;77391.22;5012312;28;20026;-70
2022/05/13 00:45:01;;;;;;;12.23;2.10;;;;;;;-142.75;100.00;77393.19;5012144;28;20635;-70
2022/05/13 00:47:26;;;;;;;;;;;;;;;-142.75;100.00;77377.44;5012762;28;20034;-70
2022/05/13 00:49:53;;;;;;;15.43;2.53;;;;;;;-142.75;100.00;77371.53;5012072;28;20338;-71
2022/05/13 00:52:19;;;;;;;9.38;2.33;;;;;;;-142.75;100.00;77381.38;5012219;28;20038;-70
2022/05/13 00:54:45;;;;;;;8.65;1.80;;;;;;;-142.75;100.00;77373.50;5012122;28;20117;-70
2022/05/13 00:57:14;;;;;;;14.85;2.40;;;;;;;-142.75;100.00;77363.66;5011988;28;20018;-70
2022/05/13 00:59:42;;;;;;;14.80;3.08;;;;;;;-142.75;100.00;77367.59;4994022;28;20032;-70
2022/05/13 01:02:08;;;;;;;8.40;2.03;;;;;;;-142.75;100.00;77367.59;5012028;28;20026;-70
2022/05/13 01:04:35;;;;;;;11.85;2.30;;;;;;;-142.75;100.00;77365.63;5011817;28;20026;-71
2022/05/13 01:07:06;;;;;;;12.88;3.08;;;;;;;-142.75;100.00;77365.63;5011886;28;20701;-71
2022/05/13 01:09:35;;;;;;;13.65;2.90;;;;;;;-142.75;100.00;77359.72;5011856;28;20076;-70
2022/05/13 01:12:07;;;;;;;13.10;2.35;;;;;;;-142.75;100.00;77355.78;5011792;28;20097;-70
2022/05/13 01:14:42;;;;;;;12.95;2.35;;;;;;;-142.75;100.00;77345.94;5011790;28;20446;-71
2022/05/13 01:20:24;;;;;;;14.13;2.65;;;;;;;-142.75;100.00;77351.84;4988788;28;20037;-70
2022/05/13 01:22:56;;;;;;;16.45;2.70;;;;;;;-142.75;100.00;77342.00;5011619;28;20025;-68
2022/05/13 01:25:24;;;;;;;15.93;2.60;;;;;;;-142.75;100.00;77332.16;5011568;28;20036;-68
2022/05/13 01:27:51;;;;;;;16.88;2.72;;;;;;;-142.75;100.00;77334.13;5006029;28;20030;-69
2022/05/13 01:30:23;;;;;;;15.57;3.05;;;;;;;-142.75;100.00;77330.19;5010276;28;20057;-68
2022/05/13 01:32:49;;;;;;;13.95;2.53;;;;;;;-142.75;100.00;77330.19;4993610;28;20040;-68
2022/05/13 01:35:15;;;;;;;15.90;3.35;;;;;;;-142.75;100.00;77322.31;5011147;28;20108;-68
2022/05/13 01:37:40;;;;;;;;;;;;;;;-142.75;100.00;77322.31;5011772;28;20057;-68
2022/05/13 01:40:06;;;;;;;11.43;2.42;;;;;;;-142.75;100.00;77318.38;5011337;28;19948;-68
2022/05/13 01:42:32;;;;;;;13.35;3.00;;;;;;;-142.75;100.00;77318.38;4993748;28;20108;-68
2022/05/13 01:44:58;;;;;;;15.52;2.58;;;;;;;-142.75;100.00;77318.38;4993544;28;20479;-68
2022/05/13 01:47:24;;;;;;;;;;;;;;;-142.75;100.00;77318.38;5011244;28;20129;-68
2022/05/13 01:49:50;;;;;;;11.85;1.88;;;;;;;-142.75;100.00;77316.41;5010936;28;19918;-68
2022/05/13 01:52:15;;;;;;;10.23;2.38;;;;;;;-142.75;100.00;77310.50;4982090;28;20033;-68
2022/05/13 01:54:40;;;;;;;;;;;;;;;-142.75;100.00;77306.56;4974514;28;20040;-69
2022/05/13 01:57:06;;;;;;;9.52;1.98;;;;;;;-142.75;100.00;77304.59;4973915;28;20012;-67
2022/05/13 01:59:31;;;;;;;10.57;2.20;;;;;;;-142.75;100.00;77300.66;4991078;28;20033;-68
2022/05/13 02:01:57;;;;;;;15.45;2.20;;;;;;;-142.75;100.00;77296.72;4974078;28;20117;-68
2022/05/13 02:04:22;;;;;;;15.25;2.25;;;;;;;-142.75;100.00;77298.69;4973893;28;20030;-69
2022/05/13 02:06:48;;;;;;;11.85;2.47;;;;;;;-142.75;100.00;77294.75;4991196;28;20540;-68
2022/05/13 02:09:13;;;;;;;;;;;;;;;-142.75;100.00;77296.72;4974454;28;20496;-69
2022/05/13 02:11:39;;;;;;;11.45;1.65;;;;;;;-142.75;100.00;77294.75;4991366;28;20371;-68
2022/05/13 02:14:05;;;;;;;11.27;2.35;;;;;;;-142.75;100.00;77290.81;4990903;28;20073;-68
2022/05/13 02:16:31;;;;;;;11.00;1.80;;;;;;;-142.75;100.00;77292.78;4991071;28;20027;-68
2022/05/13 02:18:57;;;;;;;;;;;;;;;-142.75;100.00;77288.84;4991272;28;20038;-68
2022/05/13 02:21:22;;;;;;;8.20;1.67;;;;;;;-142.75;100.00;77290.81;4991306;28;19918;-70
2022/05/13 02:23:47;;;;;;;;;;;;;;;-142.75;100.00;77286.88;4990123;28;20058;-70
2022/05/13 02:26:14;;;;;;;11.73;1.98;;;;;;;-142.75;100.00;77296.72;4998279;28;19959;-71
2022/05/13 02:28:40;;;;;;;14.88;2.05;;;;;;;-142.75;100.00;77296.72;5008908;28;20037;-70
2022/05/13 02:31:07;;;;;;;6.20;1.63;;;;;;;-142.75;100.00;77300.66;5010259;28;20038;-70
2022/05/13 02:33:34;;;;;;;10.32;1.95;;;;;;;-142.75;100.00;77306.56;5010449;28;20112;-71
2022/05/13 02:36:00;;;;;;;7.35;1.52;;;;;;;-142.75;100.00;77300.66;5010179;28;20738;-70
2022/05/13 02:38:25;;;;;;;;;;;;;;;-142.75;100.00;77306.56;5010580;28;20028;-71
2022/05/13 02:43:34;;;;;;;11.98;1.90;;;;;;;-142.75;100.00;77304.59;5010581;28;20514;-70
2022/05/13 02:46:00;;;;;;;13.63;2.10;;;;;;;-142.75;100.00;77302.63;5009059;28;20057;-70
2022/05/13 02:48:26;;;;;;;;;;;;;;;-142.75;100.00;77298.69;5010184;28;20026;-70
2022/05/13 02:50:51;;;;;;;12.38;2.72;;;;;;;-142.75;100.00;77292.78;5010237;28;19913;-70
2022/05/13 02:53:16;;;;;;;11.07;1.67;;;;;;;-142.75;100.00;77292.78;4992445;28;20083;-70
2022/05/13 02:55:41;;;;;;;;;;;;;;;-142.75;100.00;77292.78;5010318;28;20517;-70
2022/05/13 02:58:07;;;;;;;7.95;1.65;;;;;;;-142.75;100.00;77300.66;5009480;28;20367;-70
2022/05/13 03:00:33;;;;;;;12.13;2.20;;;;;;;-142.75;100.00;77302.63;5009963;28;20590;-71
2022/05/13 03:02:58;;;;;;;9.45;1.67;;;;;;;-142.75;100.00;77308.53;5009949;28;20034;-70
2022/05/13 03:05:24;;;;;;;;;;;;;;;-142.75;100.00;77310.50;5010174;28;20104;-70
2022/05/13 03:07:50;;;;;;;12.07;1.90;;;;;;;-142.75;100.00;77306.56;5009556;28;19917;-70
2022/05/13 03:10:15;;;;;;;10.20;1.48;;;;;;;-142.75;100.00;77310.50;5010179;28;20025;-71
2022/05/13 03:12:41;;;;;;;8.02;1.45;;;;;;;-142.75;100.00;77310.50;5009728;28;20368;-71
2022/05/13 03:15:06;;;;;;;;;;;;;;;-142.75;100.00;77308.53;4992254;28;20128;-70
2022/05/13 03:17:31;;;;;;;4.28;1.42;;;;;;;-142.75;100.00;77310.50;5009525;28;19924;-70
2022/05/13 03:19:57;;;;;;;11.00;1.70;;;;;;;-142.75;100.00;77316.41;5009484;28;20037;-69
2022/05/13 03:22:22;;;;;;;;;;;;;;;-142.75;100.00;77310.50;5010245;28;20499;-71
2022/05/13 03:24:48;;;;;;;9.05;1.30;;;;;;;-142.75;100.00;77316.41;5009478;28;20668;-70
2022/05/13 03:27:13;;;;;;;;;;;;;;;-142.75;100.00;77314.44;5009784;28;20034;-70
2022/05/13 03:29:38;;;;;;;6.38;1.35;;;;;;;-142.75;100.00;77322.31;5009291;28;19921;-71
2022/05/13 03:32:07;;;;;;;;;;;;;;;-142.75;100.00;77326.25;5008699;28;20033;-70
2022/05/13 03:34:33;;;;;;;7.47;1.77;;;;;;;-142.75;100.00;77342.00;5009461;28;19920;-70
2022/05/13 03:36:58;;;;;;;5.60;1.33;;;;;;;-142.75;100.00;77342.00;5009487;28;20029;-70
2022/05/13 03:39:24;;;;;;;9.40;1.75;;;;;;;-142.75;100.00;77342.00;5009475;28;20022;-69
2022/05/13 03:41:50;;;;;;;;;;;;;;;-142.75;100.00;77347.91;5009844;28;20026;-71
2022/05/13 03:44:17;;;;;;;7.97;1.52;;;;;;;-142.75;100.00;77351.84;5009427;28;19914;-71
2022/05/13 03:46:43;;;;;;;9.63;1.85;;;;;;;-142.75;100.00;77367.59;5039396;22;20063;-69
2022/05/13 03:49:09;;;;;;;11.07;1.67;;;;;;;-142.75;100.00;77361.69;5027014;28;20026;-69
2022/05/13 03:51:35;;;;;;;7.45;1.48;;;;;;;-142.75;100.00;77363.66;5028811;28;20032;-70
2022/05/13 03:54:00;;;;;;;10.73;1.90;;;;;;;-142.75;100.00;77363.66;5029205;28;20029;-71
2022/05/13 03:56:25;;;;;;;;;;;;;;;-142.75;100.00;77363.66;5028741;28;20049;-71
2022/05/13 03:58:52;;;;;;;8.55;1.73;;;;;;;-142.75;100.00;77371.53;5032725;28;20310;-70
2022/05/13 04:01:17;;;;;;;7.05;2.38;;;;;;;-142.75;100.00;77381.38;5033146;28;20120;-70
2022/05/13 04:03:43;;;;;;;11.73;2.25;;;;;;;-142.75;100.00;77385.31;5032919;28;20025;-70
2022/05/13 04:08:58;;;;;;;10.52;1.92;;;;;;;-142.75;100.00;77385.31;5033289;28;20048;-70
2022/05/13 04:11:26;;;;;;;13.98;2.22;;;;;;;-142.75;100.00;77381.38;5032901;28;20053;-70
2022/05/13 04:16:35;;;;;;;9.90;2.10;;;;;;;-142.75;100.00;77379.41;5032994;28;20033;-70
2022/05/13 04:19:01;;;;;;;10.65;1.83;;;;;;;-142.75;100.00;77379.41;5032413;28;20025;-70
2022/05/13 04:21:32;;;;;;;;;;;;;;;-142.75;100.00;77383.34;5033263;28;20514;-70
2022/05/13 04:24:00;;;;;;;8.40;2.05;;;;;;;-142.75;100.00;77389.25;5032672;28;19912;-70
2022/05/13 04:26:25;;;;;;;9.48;2.13;;;;;;;-142.75;100.00;77387.28;5032390;28;20036;-70
2022/05/13 04:28:52;;;;;;;8.40;2.50;;;;;;;-142.75;100.00;77387.28;5032370;28;20034;-70
2022/05/13 04:31:20;;;;;;;13.10;3.00;;;;;;;-142.75;100.00;77403.03;5051203;28;20088;-71
2022/05/13 04:33:47;;;;;;;11.30;2.83;;;;;;;-142.75;100.00;77405.00;5051040;28;20037;-71
2022/05/13 04:36:13;;;;;;;12.27;2.60;;;;;;;-142.75;100.00;77397.13;5052203;28;20478;-70
2022/05/13 04:38:38;;;;;;;9.88;2.40;;;;;;;-142.75;100.00;77391.22;5052187;28;20087;-70
2022/05/13 04:43:48;;;;;;;9.65;2.33;;;;;;;-142.75;100.00;77395.16;5052003;28;19940;-70
2022/05/13 04:46:14;;;;;;;11.05;2.67;;;;;;;-142.75;100.00;77391.22;5051745;28;20025;-70
2022/05/13 04:48:39;;;;;;;10.70;2.65;;;;;;;-142.75;100.00;77381.38;5051978;28;20024;-70
2022/05/13 04:51:05;;;;;;;;;;;;;;;-142.75;100.00;77379.41;5052770;28;20078;-70
2022/05/13 04:53:33;;;;;;;22.02;2.47;;;;;;;-142.75;100.00;77377.44;5051788;28;19912;-69
2022/05/13 04:56:00;;;;;;;15.15;2.50;;;;;;;-142.75;100.00;77373.50;5051879;28;20016;-70
2022/05/13 04:58:26;;;;;;;13.68;2.90;;;;;;;-142.75;100.00;77365.63;5051435;28;20211;-71
2022/05/13 05:00:54;;;;;;;14.73;2.83;;;;;;;-142.75;100.00;77365.63;5051787;28;20021;-70
2022/05/13 05:03:22;;;;;;;9.95;2.38;;;;;;;-142.75;100.00;77367.59;5050343;28;20025;-70
2022/05/13 05:05:48;;;;;;;10.20;2.42;;;;;;;-142.75;100.00;77361.69;5051533;28;20021;-70
2022/05/13 05:08:15;;;;;;;16.40;2.35;;;;;;;-142.75;100.00;77357.75;5050544;28;20032;-70
2022/05/13 05:10:42;;;;;;;10.30;2.10;;;;;;;-142.75;100.00;77365.63;5051918;28;20048;-71
2022/05/13 05:13:08;;;;;;;11.23;2.22;;;;;;;-142.75;100.00;77361.69;5051431;28;20083;-70
2022/05/13 05:15:35;;;;;;;9.45;1.67;;;;;;;-142.75;100.00;77353.81;5033623;28;20522;-70
2022/05/13 05:18:01;;;;;;;14.23;2.15;;;;;;;-142.75;100.00;77353.81;5029996;28;20108;-70
2022/05/13 05:20:26;;;;;;;;;;;;;;;-142.75;100.00;77338.06;5032139;28;20037;-68
2022/05/13 05:22:52;;;;;;;9.88;2.10;;;;;;;-142.75;100.00;77338.06;5036128;28;19912;-68
2022/05/13 05:25:20;;;;;;;11.38;1.25;;;;;;;-142.75;100.00;77334.13;5031275;28;20029;-68
2022/05/13 05:27:45;;;;;;;10.05;2.00;;;;;;;-142.75;100.00;77328.22;5047521;28;20505;-68
2022/05/13 05:30:12;;;;;;;10.23;1.92;;;;;;;-142.75;100.00;77326.25;5050966;28;20020;-69
2022/05/13 05:32:39;;;;;;;8.05;1.55;;;;;;;-142.75;100.00;77330.19;5051169;28;20684;-68
2022/05/13 05:35:11;;;;;;;7.47;1.50;;;;;;;-142.75;100.00;77320.34;5049891;28;20120;-69
2022/05/13 05:37:37;;;;;;;7.47;1.42;;;;;;;-142.75;100.00;77320.34;5050993;28;20029;-68
2022/05/13 05:40:03;;;;;;;9.60;1.90;;;;;;;-142.75;100.00;77312.47;5044377;28;22102;-68
2022/05/13 05:42:29;;;;;;;10.30;1.20;;;;;;;-142.75;100.00;77310.50;5050891;28;20086;-68
2022/05/13 05:44:54;;;;;;;9.45;1.50;;;;;;;-142.75;100.00;77310.50;5040412;28;20029;-68
2022/05/13 05:47:21;;;;;;;;;;;;;;;-142.75;100.00;77300.66;5029979;28;20052;-71
2022/05/13 05:49:46;;;;;;;6.63;2.05;;;;;;;-142.75;100.00;77296.72;5029289;28;19921;-69
2022/05/13 05:52:12;;;;;;;10.80;1.80;;;;;;;-142.75;100.00;77296.72;5031191;28;20033;-71
2022/05/13 05:57:22;;;;;;;7.38;1.30;;;;;;;-142.75;100.00;77294.75;5040204;28;20605;-71
2022/05/13 05:59:48;;;;;;;14.75;1.98;;;;;;;-142.75;100.00;77290.81;5050138;28;20078;-70
2022/05/13 06:02:14;;;;;;;11.63;1.67;;;;;;;-142.75;100.00;77284.91;5049425;28;20027;-71
2022/05/13 06:04:40;;;;;;;11.23;1.67;;;;;;;-142.75;100.00;77282.94;5050798;28;20033;-68
2022/05/13 06:07:07;;;;;;;;;;;;;;;-142.75;100.00;77282.94;5050699;28;20033;-68
2022/05/13 06:09:32;;;;;;;8.68;1.13;;;;;;;-142.75;100.00;77282.94;5034851;28;19913;-68
2022/05/13 06:11:57;;;;;;;;;;;;;;;-142.75;100.00;77290.81;5045910;28;20036;-69
2022/05/13 06:14:23;;;;;;;6.07;1.40;;;;;;;-142.75;100.00;77296.72;5050361;28;19925;-68
2022/05/13 06:16:48;;;;;;;;;;;;;;;-142.75;100.00;77296.72;5050526;28;20055;-68
2022/05/13 06:19:14;;;;;;;8.50;1.35;;;;;;;-142.75;100.00;77290.81;5050000;28;19912;-68
2022/05/13 06:21:39;;;;;;;10.40;1.85;;;;;;;-142.75;100.00;77279.00;5043939;28;20453;-69
2022/05/13 06:24:05;;;;;;;;;;;;;;;-142.75;100.00;77271.13;5029447;28;20028;-70
2022/05/13 06:26:31;;;;;;;7.22;0.98;;;;;;;-142.75;100.00;77269.16;5028964;28;19917;-69
2022/05/13 06:28:57;;;;;;;7.00;1.05;;;;;;;-142.75;100.00;77271.13;5029720;28;20029;-70
2022/05/13 06:31:23;;;;;;;6.25;1.00;;;;;;;-142.75;100.00;77267.19;5028367;28;20040;-69
2022/05/13 06:33:49;;;;;;;11.75;0.93;;;;;;;-142.75;100.00;77249.47;5029356;28;20033;-69
2022/05/13 06:36:15;;;;;;;5.78;1.00;;;;;;;-142.75;100.00;77231.75;5027882;28;20509;-69
2022/05/13 06:38:41;;;;;;;9.75;1.33;;;;;;;-142.75;100.00;77225.84;5028808;28;20032;-69
2022/05/13 06:41:06;;;;;;;;;;;;;;;-142.75;100.00;77192.38;5029774;28;20032;-69
2022/05/13 06:43:32;;;;;;;6.47;1.00;;;;;;;-142.75;100.00;77168.75;5028943;28;19917;-69
2022/05/13 06:45:57;;;;;;;;;;;;;;;-142.75;100.00;77125.44;5029029;28;20048;-69
2022/05/13 06:48:23;;;;;;;4.50;0.80;;;;;;;-142.75;100.00;77113.63;5035746;28;19921;-69
2022/05/13 06:50:48;;;;;;;;;;;;;;;-142.75;100.00;77121.50;5031292;28;20065;-69
2022/05/13 06:53:19;;;;;;;4.70;1.08;;;;;;;-142.75;100.00;77133.31;5048735;28;20007;-69
2022/05/13 06:55:45;;;;;;;5.50;1.00;;;;;;;-142.75;100.00;77125.44;5048179;28;20078;-68
2022/05/13 06:58:12;;;;;;;7.25;0.95;;;;;;;-142.75;100.00;77113.63;5029578;28;20017;-69
2022/05/13 07:00:38;;;;;;;6.45;0.80;;;;;;;-142.75;100.00;77086.06;5048173;28;20142;-68
2022/05/13 07:03:04;;;;;;;;;;;;;;;-142.75;100.00;77070.31;5049165;28;20023;-69
2022/05/13 07:05:30;;;;;;;7.82;1.52;;;;;;;-142.75;100.00;77068.34;5048549;28;19913;-68
2022/05/13 07:07:56;;;;;;;3.88;1.05;;;;;;;-142.75;100.00;77070.31;5048205;28;20076;-68
2022/05/13 07:10:21;;;;;;;5.35;0.82;;;;;;;-142.75;100.00;77058.50;5027962;28;20057;-70
2022/05/13 07:12:47;;;;;;;;;;;;;;;-142.75;100.00;77072.28;5037032;28;20466;-70
2022/05/13 07:15:15;;;;;;;8.05;0.90;;;;;;;-142.75;100.00;77084.09;5048502;28;19967;-69
2022/05/13 07:17:42;;;;;;;6.15;1.20;;;;;;;-142.75;100.00;77099.84;5040266;28;20025;-68
2022/05/13 07:20:08;;;;;;;8.20;1.50;;;;;;;-142.75;100.00;77107.72;5048300;28;20079;-69
2022/05/13 07:22:34;;;;;;;6.43;0.98;;;;;;;-142.75;100.00;77111.66;5048377;28;20112;-68
2022/05/13 07:25:00;;;;;;;;;;;;;;;-142.75;100.00;77113.63;5042825;28;20021;-70
2022/05/13 07:27:25;;;;;;;7.63;1.33;;;;;;;-142.75;100.00;77090.00;5034973;28;19923;-69
2022/05/13 07:29:50;;;;;;;;;;;;;;;-142.75;100.00;77074.25;5048537;28;20402;-69
2022/05/13 07:32:15;;;;;;;8.82;1.25;;;;;;;-142.75;100.00;77066.38;5051912;28;19974;-70
2022/05/13 07:34:40;;;;;;;;;;;;;;;-142.75;100.00;77058.50;5044753;28;20060;-68
2022/05/13 07:37:06;;;;;;;4.85;1.20;;;;;;;-142.75;100.00;77042.75;5035779;28;19924;-68
2022/05/13 07:42:15;;;;;;;6.45;0.98;;;;;;;-142.75;100.00;77007.31;5036450;28;20000;-69
2022/05/13 07:44:40;;;;;;;;;;;;;;;-142.75;100.00;76995.50;5038658;28;20116;-68
2022/05/13 07:47:07;;;;;;;8.45;1.40;;;;;;;-142.75;100.00;76964.00;5045317;28;19920;-68
2022/05/13 07:49:34;;;;;;;8.50;0.98;;;;;;;-142.75;100.00;76973.84;5035682;28;20029;-68
2022/05/13 07:51:59;;;;;;;3.35;1.17;;;;;;;-142.75;100.00;76999.44;5036755;28;20028;-69
2022/05/13 07:54:25;;;;;;;;;;;;;;;-142.75;100.00;77030.94;5035127;28;20491;-68
2022/05/13 07:56:50;;;;;;;4.47;1.15;;;;;;;-142.75;100.00;77040.78;5034678;28;19912;-68
2022/05/13 07:59:15;;;;;;;;;;;;;;;-142.75;100.00;76987.63;5035862;28;20029;-68
2022/05/13 08:01:40;;;;;;;4.85;1.02;;;;;;;-142.75;100.00;76960.06;5046146;28;19913;-68
2022/05/13 08:04:06;;;;;;;;;;;;;;;-142.75;100.00;76916.75;5055123;28;20028;-68
2022/05/13 08:06:32;;;;;;;6.63;1.55;;;;;;;-142.75;100.00;76885.25;5056270;28;20344;-68
2022/05/13 08:08:58;;;;;;;5.40;1.20;;;;;;;-142.75;100.00;76849.81;5056763;28;20048;-69
2022/05/13 08:11:24;;;;;;;;;;;;;;;-142.75;100.00;76853.75;5057840;28;20064;-68
2022/05/13 08:13:50;;;;;;;6.72;1.20;;;;;;;-142.75;100.00;76808.50;5056981;28;19912;-69
2022/05/13 08:16:17;;;;;;;;;;;;;;;-142.75;100.00;76857.69;5057335;28;20032;-69
2022/05/13 08:18:44;;;;;;;5.53;1.10;;;;;;;-142.75;100.00;76820.28;5056602;28;19935;-68
2022/05/13 08:21:10;;;;;;;8.35;1.10;;;;;;;-142.75;100.00;76802.56;5056789;28;20079;-69
2022/05/13 08:23:36;;;;;;;4.30;1.05;;;;;;;-142.75;100.00;76780.94;5056901;28;20025;-68
2022/05/13 08:26:02;;;;;;;10.32;1.10;;;;;;;-142.75;100.00;76743.53;5056634;28;20036;-68
2022/05/13 08:28:28;;;;;;;7.30;1.10;;;;;;;-142.75;100.00;76735.66;5056642;28;20155;-69
2022/05/13 08:30:53;;;;;;;5.18;1.13;;;;;;;-142.75;100.00;76708.09;5056722;28;20104;-69
2022/05/13 08:33:19;;;;;;;;;;;;;;;-142.75;100.00;76717.94;5057222;28;20033;-69
2022/05/13 08:35:54;;;;;;;5.85;1.10;;;;;;;-142.75;100.00;76702.19;5056697;28;19917;-69
2022/05/13 08:38:22;;;;;;;7.88;1.08;;;;;;;-142.75;100.00;76727.78;5056558;28;20028;-69
2022/05/13 08:40:50;;;;;;;4.40;1.10;;;;;;;-142.75;100.00;76704.16;5056702;28;20390;-69
2022/05/13 08:43:20;;;;;;;7.65;0.88;;;;;;;-142.75;100.00;76674.63;5054098;28;20398;-69
2022/05/13 08:45:53;;;;;;;5.07;1.30;;;;;;;-142.75;100.00;76704.16;5052101;28;20021;-69
2022/05/13 08:48:27;;;;;;;5.80;1.40;;;;;;;-142.75;100.00;76723.84;5053055;28;20036;-68
2022/05/13 08:51:15;;;;;;;5.25;0.93;;;;;;;-142.75;100.00;76749.44;5053444;28;20111;-69
2022/05/13 08:53:54;;;;;;;4.90;0.98;;;;;;;-142.75;100.00;76704.16;5024669;28;20047;-69
2022/05/13 08:56:24;;;;;;;5.75;1.00;;;;;;;-142.75;100.00;76700.22;5052984;28;20052;-69
2022/05/13 08:59:17;;;;;;;3.63;0.90;;;;;;;-142.75;100.00;76664.78;5052938;28;20107;-70
2022/05/13 09:01:47;;;;;;;4.55;1.10;;;;;;;-142.75;100.00;76615.56;5053849;28;20389;-70
2022/05/13 09:04:25;;;;;;;3.63;0.80;;;;;;;-142.75;100.00;76601.78;5053166;28;20107;-70
2022/05/13 09:06:56;;;;;;;5.90;1.20;;;;;;;-142.75;100.00;76605.72;5051575;28;20397;-70
2022/05/13 09:09:21;;;;;;;2.85;1.17;;;;;;;-142.75;98.27;76564.38;5052700;28;20090;-70
2022/05/13 09:12:12;;;;;;;5.32;1.00;;;;;;;-142.75;92.70;76538.78;5053037;28;20487;-70
2022/05/13 09:14:43;;;;;;;9.02;1.77;;;;;;;-142.75;94.84;76613.59;5052868;28;20023;-71
2022/05/13 09:17:20;;;;;;;6.97;0.82;;;;;;;-142.75;92.37;76643.13;5040067;28;20387;-70
2022/05/13 09:19:57;;;;;;;10.05;0.90;;;;;;;-142.75;96.17;76710.06;5032522;28;20044;-70
2022/05/13 09:22:23;;;;;;;3.40;0.90;;;;;;;-142.75;99.95;76715.97;5050227;28;20040;-70
2022/05/13 09:24:48;;;;;;;8.73;1.23;;;;;;;-142.75;99.27;76692.34;5052644;28;20048;-69
2022/05/13 09:27:14;;;;;;;4.95;1.15;;;;;;;-142.75;96.98;76629.34;5045178;28;20053;-67
2022/05/13 09:29:45;;;;;;;5.40;1.20;;;;;;;-142.75;93.70;76617.53;5032406;28;20116;-70
2022/05/13 09:32:26;;;;;;;5.35;1.08;;;;;;;-142.75;99.92;76552.56;5032726;28;20025;-69
2022/05/13 09:35:04;;;;;;;3.97;1.10;;;;;;;-142.75;90.08;76495.50;5032694;28;20025;-69
2022/05/13 09:37:38;;;;;;;4.00;1.23;;;;;;;-142.75;89.17;76467.94;5032486;28;20066;-68
2022/05/13 09:40:05;;;;;;;3.42;0.90;;;;;;;-142.75;81.78;76523.06;5032333;28;20026;-69
2022/05/13 09:42:37;;;;;;;5.75;0.90;;;;;;;-142.75;84.23;76477.78;5031264;28;20033;-69
2022/05/13 09:45:15;;;;;;;4.57;1.27;;;;;;;-142.75;80.91;76456.13;5031109;28;20032;-69
2022/05/13 09:47:41;;;;;;;3.72;0.82;;;;;;;-142.75;79.08;76430.53;5065025;22;20060;-67
2022/05/13 09:50:24;;;;;;;6.57;1.30;;;;;;;-142.75;77.62;76452.19;5049685;28;20028;-70
2022/05/13 09:52:51;;;;;;;4.80;0.90;;;;;;;-142.75;77.07;76424.63;5050888;28;20120;-70
2022/05/13 09:55:22;;;;;;;4.45;0.90;;;;;;;-142.75;76.63;76385.25;5050688;28;20069;-71
2022/05/13 09:57:51;;;;;;;2.92;0.80;;;;;;;-142.75;74.14;76349.81;5050817;28;20056;-70
2022/05/13 10:00:24;;;;;;;4.25;1.08;;;;;;;-142.75;71.52;76387.22;5050915;28;20029;-70
2022/05/13 10:03:10;;;;;;;3.70;0.85;;;;;;;-142.75;71.52;76365.56;5051033;28;20032;-70
2022/05/13 10:05:35;;;;;;;5.40;1.27;;;;;;;-142.75;75.04;76365.56;5051017;28;20031;-70
2022/05/13 10:08:05;;;;;;;4.03;0.80;;;;;;;-142.75;70.30;76336.06;5051725;28;20037;-70
2022/05/13 10:16:07;;;;;;;6.60;0.95;;;;;;;-142.75;72.00;76304.56;5050887;28;20640;-72
2022/05/13 10:18:37;;;;;;;2.83;0.70;;;;;;;-142.75;69.54;76343.94;5051463;28;20136;-70
2022/05/13 10:21:08;;;;;;;5.63;1.10;;;;;;;-142.75;69.62;76322.28;5051915;28;20021;-70
2022/05/13 10:24:05;;;;;;;3.38;0.70;;;;;;;-142.75;72.23;76300.63;5050744;28;20547;-70
2022/05/13 10:26:35;;;;;;;;;;;;;;;-142.75;71.47;76265.19;5051055;28;20021;-71
2022/05/13 10:29:21;;;;;;;3.72;1.20;;;;;;;-142.75;67.20;76215.97;5051286;28;19942;-72
2022/05/13 10:31:49;;;;;;;3.70;1.23;;;;;;;-142.75;65.13;76263.22;5050487;28;20032;-70
2022/05/13 10:34:34;;;;;;;5.03;1.38;;;;;;;-142.75;67.16;76322.28;5051152;28;20028;-70
2022/05/13 10:36:59;;;;;;;4.32;0.90;;;;;;;-142.75;67.28;76278.97;5051007;28;20059;-70
2022/05/13 10:39:52;;;;;;;4.00;1.00;;;;;;;-142.75;65.99;76282.91;5050938;28;20056;-69
2022/05/13 10:42:25;;;;;;;7.20;1.13;;;;;;;-142.75;66.58;76277.00;5050301;28;20032;-71
2022/05/13 10:45:24;;;;;;;6.35;1.50;;;;;;;-142.75;69.78;76351.81;5050288;28;20048;-71
2022/05/13 10:47:56;;;;;;;4.70;0.95;;;;;;;-142.75;68.13;76375.41;5049591;28;20629;-71
2022/05/13 10:50:43;;;;;;;4.97;1.00;;;;;;;-142.75;70.76;76393.13;5050269;28;20064;-70
2022/05/13 10:53:15;;;;;;;6.75;1.17;;;;;;;-142.75;70.40;76438.41;5050304;28;20052;-72
2022/05/13 10:55:51;;;;;;;5.78;1.02;;;;;;;-142.75;73.86;76483.69;5051180;28;20036;-69
2022/05/13 10:58:35;;;;;;;3.33;0.90;;;;;;;-142.75;78.09;76568.31;5051080;28;20032;-71
2022/05/13 11:01:25;;;;;;;4.05;1.10;;;;;;;-142.75;77.77;76507.31;5051338;28;20032;-69
2022/05/13 11:04:00;;;;;;;4.53;1.25;;;;;;;-142.75;77.98;76534.84;5050387;28;20024;-70
2022/05/13 11:06:39;;;;;;;8.13;0.95;;;;;;;-142.75;80.12;76527.00;5050129;28;20035;-71
2022/05/13 11:09:18;;;;;;;9.43;1.65;;;;;;;-142.75;75.87;76444.31;5050601;28;20082;-71
2022/05/13 11:11:45;;;;;;;6.53;1.45;;;;;;;-142.75;74.40;76365.56;5050611;28;20482;-71
2022/05/13 11:14:32;;;;;;;5.15;0.93;;;;;;;-142.75;67.32;76355.72;5051043;28;20051;-70
2022/05/13 11:17:14;;;;;;;3.95;0.88;;;;;;;-142.75;67.65;76367.53;5050351;28;20024;-70
2022/05/13 11:20:18;;;;;;;4.30;1.10;;;;;;;-142.75;67.61;76340.00;5050861;28;20032;-70
2022/05/13 11:23:00;;;;;;;4.28;1.00;;;;;;;-142.75;67.54;76345.91;5050373;28;20037;-69
2022/05/13 11:25:56;;;;;;;4.78;0.90;;;;;;;-142.75;66.16;76292.75;5050736;28;20029;-71
2022/05/13 11:28:34;;;;;;;5.23;0.93;;;;;;;-142.75;66.91;76241.56;5049378;28;20029;-71
2022/05/13 11:31:08;;;;;;;5.78;0.85;;;;;;;-142.75;64.35;76343.94;5049682;28;20370;-71
2022/05/13 11:34:05;;;;;;;4.95;1.02;;;;;;;-142.75;64.56;76341.97;5050997;28;20033;-70
2022/05/13 11:36:56;;;;;;;3.80;0.80;;;;;;;-142.75;64.42;76338.03;5050745;28;20082;-71
2022/05/13 11:39:43;;;;;;;7.20;0.85;;;;;;;-142.75;65.77;76377.38;5050721;28;20033;-71
2022/05/13 11:45:56;;;;;;;5.68;1.10;;;;;;;-142.75;65.20;76369.50;5050687;28;20039;-71
2022/05/13 11:48:30;;;;;;;2.05;0.60;;;;;;;-142.75;63.75;76265.19;5050134;28;20037;-70
2022/05/13 11:51:41;;;;;;;4.57;1.13;;;;;;;-142.75;63.01;76235.66;5049064;28;20490;-67
2022/05/13 11:54:25;;;;;;;6.57;1.10;;;;;;;-142.75;62.93;76210.06;4972594;28;20380;-71
2022/05/13 11:57:16;;;;;;;3.25;1.00;;;;;;;-142.75;61.78;76215.97;5044903;28;20107;-71